Time;durP1;ratioP1;P1;durP2;ratioP2;P2;SDS_P1;SDS_P2;PMS_P1;PMS_P2;Temp;Humidity;BMP_temperature;BMP_pressure;BME280_temperature;BME280_humidity;BME280_pressure;Samples;Min_cycle;Max_cycle;Signal;HPM_P1;HPM_P2
2022/12/06 00:01:17;;;;;;;7.32;3.70;;;;;;;6.18;100.00;100152.78;5088197;28;20068;-82
2022/12/06 00:03:46;;;;;;;10.23;3.80;;;;;;;6.13;100.00;100158.44;5057932;28;20783;-83
2022/12/06 00:06:17;;;;;;;8.45;4.03;;;;;;;6.15;100.00;100153.06;5073015;28;20822;-82
2022/12/06 00:08:43;;;;;;;5.88;3.40;;;;;;;6.09;100.00;100154.47;5074783;28;20070;-83
2022/12/06 00:11:21;;;;;;;9.98;3.92;;;;;;;6.12;100.00;100159.41;5090326;28;20036;-82
2022/12/06 00:13:47;;;;;;;11.00;3.80;;;;;;;6.09;100.00;100164.91;5090089;28;20056;-84
2022/12/06 00:16:16;;;;;;;9.35;4.25;;;;;;;6.17;100.00;100160.78;5092888;28;20032;-82
2022/12/06 00:18:43;;;;;;;12.73;3.95;;;;;;;6.03;100.00;100164.63;5085684;28;20520;-83
2022/12/06 00:21:15;;;;;;;6.72;3.30;;;;;;;6.18;100.00;100165.84;5091731;28;20082;-82
2022/12/06 00:23:44;;;;;;;12.75;3.50;;;;;;;6.14;100.00;100167.91;5091424;28;20103;-82
2022/12/06 00:26:11;;;;;;;5.57;3.13;;;;;;;6.22;100.00;100158.56;5091700;28;20575;-81
2022/12/06 00:28:37;;;;;;;10.85;3.80;;;;;;;6.10;100.00;100166.53;5091002;28;20557;-82
2022/12/06 00:31:09;;;;;;;9.85;3.40;;;;;;;6.18;100.00;100157.22;5091816;28;20028;-81
2022/12/06 00:33:36;;;;;;;7.68;3.55;;;;;;;6.08;100.00;100157.22;5090307;28;20032;-82
2022/12/06 00:36:08;;;;;;;7.50;3.05;;;;;;;5.90;100.00;100147.44;5092138;28;20032;-81
2022/12/06 00:38:35;;;;;;;4.38;2.72;;;;;;;5.99;100.00;100162.25;5091938;28;20577;-81
2022/12/06 00:41:05;;;;;;;8.18;3.20;;;;;;;6.20;100.00;100155.28;5091781;28;20374;-80
2022/12/06 00:43:32;;;;;;;10.30;3.42;;;;;;;6.18;100.00;100157.22;5092847;28;20093;-80
2022/12/06 00:45:59;;;;;;;4.30;2.88;;;;;;;6.11;100.00;100155.16;5074563;28;20038;-81
2022/12/06 00:48:25;;;;;;;10.85;3.85;;;;;;;5.99;100.00;100161.44;5092902;28;20024;-82
2022/12/06 00:50:51;;;;;;;8.82;3.33;;;;;;;6.11;100.00;100160.38;5092380;28;20103;-81
2022/12/06 00:53:17;;;;;;;9.00;3.08;;;;;;;5.95;100.00;100163.47;5092783;28;20038;-82
2022/12/06 00:55:43;;;;;;;10.95;3.35;;;;;;;6.14;100.00;100162.69;5092887;28;20496;-82
2022/12/06 00:58:10;;;;;;;7.63;3.17;;;;;;;6.20;100.00;100173.53;5057236;28;20028;-82
2022/12/06 01:00:35;;;;;;;11.45;3.70;;;;;;;6.13;100.00;100163.66;5093108;28;20119;-81
2022/12/06 01:03:01;;;;;;;10.30;3.40;;;;;;;6.12;100.00;100161.19;5092284;28;20103;-82
2022/12/06 01:05:27;;;;;;;8.85;3.25;;;;;;;6.01;100.00;100164.75;5074865;28;20028;-83
2022/12/06 01:07:53;;;;;;;11.15;3.13;;;;;;;6.14;100.00;100167.91;5092258;28;20028;-83
2022/12/06 01:10:19;;;;;;;10.57;3.05;;;;;;;6.14;100.00;100165.31;5074251;28;20031;-83
2022/12/06 01:12:45;;;;;;;6.30;2.55;;;;;;;6.11;100.00;100162.97;5091490;28;20459;-83
2022/12/06 01:15:11;;;;;;;7.07;2.63;;;;;;;6.00;100.00;100163.91;5092302;28;20035;-83
2022/12/06 01:17:37;;;;;;;4.80;2.90;;;;;;;6.12;100.00;100164.63;5074695;28;20047;-81
2022/12/06 01:20:04;;;;;;;5.18;2.83;;;;;;;6.05;100.00;100152.28;5074548;28;20405;-81
2022/12/06 01:22:30;;;;;;;8.95;2.55;;;;;;;5.98;100.00;100157.16;5092306;28;20032;-82
2022/12/06 01:24:56;;;;;;;7.32;2.78;;;;;;;5.85;100.00;100158.25;5091652;28;20499;-80
2022/12/06 01:27:22;;;;;;;8.05;2.85;;;;;;;5.95;100.00;100153.03;5092347;28;20042;-80
2022/12/06 01:29:47;;;;;;;6.72;2.75;;;;;;;5.92;100.00;100152.50;5091099;28;20100;-80
2022/12/06 01:32:13;;;;;;;5.15;2.95;;;;;;;5.85;100.00;100150.44;5092445;28;20119;-84
2022/12/06 01:34:38;;;;;;;9.07;2.75;;;;;;;5.78;100.00;100141.53;5091309;28;20111;-83
2022/12/06 01:37:04;;;;;;;6.07;2.80;;;;;;;5.80;100.00;100144.81;5092007;28;20031;-84
2022/12/06 01:39:31;;;;;;;11.70;3.92;;;;;;;5.81;100.00;100146.47;5073966;28;20098;-83
2022/12/06 01:41:57;;;;;;;5.32;2.70;;;;;;;5.70;100.00;100133.59;5090708;28;20036;-82
2022/12/06 01:44:50;;;;;;;7.85;3.05;;;;;;;5.84;100.00;100146.19;5075132;28;20028;-82
2022/12/06 01:47:24;;;;;;;9.32;2.97;;;;;;;5.76;100.00;100143.44;5090766;28;20040;-83
2022/12/06 01:50:03;;;;;;;9.00;2.70;;;;;;;5.76;100.00;100138.25;5090312;28;20031;-82
2022/12/06 01:52:37;;;;;;;6.25;2.70;;;;;;;5.58;100.00;100135.47;5072816;28;20034;-82
2022/12/06 01:55:06;;;;;;;4.85;2.28;;;;;;;5.47;100.00;100133.78;5073404;28;20031;-82
2022/12/06 01:57:32;;;;;;;6.07;3.35;;;;;;;5.38;100.00;100130.22;5072846;28;20032;-82
2022/12/06 01:59:58;;;;;;;8.50;2.53;;;;;;;5.46;100.00;100139.97;5073568;28;20075;-81
2022/12/06 02:02:24;;;;;;;8.00;2.40;;;;;;;5.45;100.00;100137.50;5055546;28;20056;-81
2022/12/06 02:04:51;;;;;;;7.70;2.58;;;;;;;5.52;100.00;100136.00;5072607;28;20043;-82
2022/12/06 02:07:19;;;;;;;8.27;2.50;;;;;;;5.62;100.00;100130.81;5090809;28;20032;-83
2022/12/06 02:09:45;;;;;;;9.05;2.88;;;;;;;5.66;100.00;100116.56;5090888;28;20507;-82
2022/12/06 02:12:14;;;;;;;4.53;2.42;;;;;;;5.57;100.00;100118.19;5056915;28;20058;-82
2022/12/06 02:14:42;;;;;;;9.77;2.97;;;;;;;5.72;100.00;100110.81;5090885;28;20089;-82
2022/12/06 02:17:20;;;;;;;5.00;2.45;;;;;;;5.67;100.00;100113.81;5073117;28;20032;-82
2022/12/06 02:19:59;;;;;;;6.18;2.42;;;;;;;5.56;100.00;100124.34;5090941;28;20024;-82
2022/12/06 02:22:29;;;;;;;5.50;2.70;;;;;;;5.65;100.00;100115.75;5073015;28;20020;-82
2022/12/06 02:25:00;;;;;;;10.23;2.50;;;;;;;5.54;100.00;100119.28;5071677;28;20474;-82
2022/12/06 02:27:44;;;;;;;4.28;2.22;;;;;;;5.64;100.00;100119.31;5091094;28;20024;-83
2022/12/06 02:30:17;;;;;;;;;;;;;;;5.65;100.00;100131.38;5072757;28;20020;-82
2022/12/06 02:32:52;;;;;;;7.07;2.38;;;;;;;5.60;100.00;100123.16;5091202;28;19927;-82
2022/12/06 02:35:17;;;;;;;7.88;2.65;;;;;;;5.49;100.00;100121.47;5089320;28;20047;-82
2022/12/06 02:37:55;;;;;;;10.13;2.55;;;;;;;5.51;100.00;100123.94;5090705;28;20470;-81
2022/12/06 02:40:37;;;;;;;5.30;2.50;;;;;;;5.60;100.00;100111.88;5072020;28;20020;-82
2022/12/06 02:43:19;;;;;;;4.38;2.47;;;;;;;5.51;100.00;100109.16;5089312;28;20052;-82
2022/12/06 02:45:52;;;;;;;5.80;2.50;;;;;;;5.60;100.00;100102.31;5089036;28;20103;-81
2022/12/06 02:48:19;;;;;;;6.18;2.85;;;;;;;5.53;100.00;100091.59;5089984;28;20377;-81
2022/12/06 02:50:53;;;;;;;6.32;3.30;;;;;;;5.58;100.00;100089.41;5090412;28;20367;-82
2022/12/06 02:53:21;;;;;;;4.22;2.45;;;;;;;5.47;100.00;100081.72;5073583;28;20070;-82
2022/12/06 02:55:48;;;;;;;4.88;2.60;;;;;;;5.41;100.00;100082.25;5072283;28;20028;-80
2022/12/06 02:58:14;;;;;;;5.32;2.40;;;;;;;5.35;100.00;100085.41;5090650;28;20064;-82
2022/12/06 03:00:42;;;;;;;5.88;3.22;;;;;;;5.61;100.00;100090.09;5072963;28;20486;-82
2022/12/06 03:03:42;;;;;;;7.65;3.20;;;;;;;5.68;100.00;100083.38;5090365;28;20111;-82
2022/12/06 03:06:26;;;;;;;5.60;2.63;;;;;;;5.68;100.00;100075.56;5089595;28;20055;-82
2022/12/06 03:09:17;;;;;;;6.00;2.70;;;;;;;5.61;100.00;100071.88;5055352;28;20032;-80
2022/12/06 03:12:14;;;;;;;6.07;2.85;;;;;;;5.80;100.00;100071.06;5105897;28;20163;-81
2022/12/06 03:15:09;;;;;;;5.53;2.30;;;;;;;5.65;100.00;100062.81;5091106;28;20508;-80
2022/12/06 03:17:53;;;;;;;5.72;2.60;;;;;;;5.66;100.00;100059.25;5090053;28;20393;-81
2022/12/06 03:20:28;;;;;;;5.07;2.85;;;;;;;5.58;100.00;100052.94;5089913;28;20036;-80
2022/12/06 03:23:01;;;;;;;9.50;2.80;;;;;;;5.56;100.00;100044.44;5054449;28;20397;-80
2022/12/06 03:25:28;;;;;;;7.57;2.90;;;;;;;5.24;100.00;100045.50;5090140;28;20428;-80
2022/12/06 03:27:56;;;;;;;4.78;2.90;;;;;;;5.27;100.00;100034.03;5089760;28;20063;-80
2022/12/06 03:30:22;;;;;;;6.20;2.90;;;;;;;5.16;100.00;100037.56;5090272;28;20032;-81
2022/12/06 03:32:50;;;;;;;9.50;2.88;;;;;;;4.91;100.00;100042.28;5088649;28;20486;-80
2022/12/06 03:35:24;;;;;;;6.75;2.80;;;;;;;4.91;100.00;100034.47;5088915;28;20032;-80
2022/12/06 03:37:56;;;;;;;7.55;2.75;;;;;;;4.80;100.00;100032.81;5058829;28;20035;-81
2022/12/06 03:40:28;;;;;;;5.30;2.65;;;;;;;4.76;100.00;100030.63;5093493;28;20381;-79
2022/12/06 03:42:55;;;;;;;8.77;3.30;;;;;;;4.70;100.00;100026.75;5093801;28;20044;-80
2022/12/06 03:45:27;;;;;;;6.40;2.80;;;;;;;4.69;100.00;100035.53;5093599;28;20466;-79
2022/12/06 03:48:08;;;;;;;7.53;2.67;;;;;;;4.65;100.00;100024.53;5093504;28;20020;-81
2022/12/06 03:50:39;;;;;;;7.88;3.88;;;;;;;4.43;100.00;100020.38;5092195;28;20028;-82
2022/12/06 03:53:06;;;;;;;9.75;2.90;;;;;;;4.52;100.00;100024.78;5093271;28;20077;-82
2022/12/06 03:55:31;;;;;;;6.72;3.05;;;;;;;4.40;100.00;100021.44;5092189;28;20039;-81
2022/12/06 03:57:56;;;;;;;4.72;2.58;;;;;;;4.36;100.00;100025.25;5075081;28;20020;-81
2022/12/06 04:00:22;;;;;;;7.70;3.95;;;;;;;4.35;100.00;100012.38;5092980;28;20084;-82
2022/12/06 04:02:48;;;;;;;7.03;3.20;;;;;;;4.30;100.00;100025.75;5092286;28;20149;-81
2022/12/06 04:05:14;;;;;;;11.90;3.10;;;;;;;4.23;100.00;100024.63;5093407;28;20031;-81
2022/12/06 04:07:40;;;;;;;6.93;3.20;;;;;;;4.19;100.00;100015.47;5090322;28;20410;-82
2022/12/06 04:10:06;;;;;;;8.90;3.90;;;;;;;4.06;100.00;100015.66;5074876;28;20122;-82
2022/12/06 04:15:19;;;;;;;13.65;4.80;;;;;;;4.11;100.00;100027.31;5091613;28;20036;-82
2022/12/06 04:23:02;;;;;;;9.88;3.33;;;;;;;4.04;100.00;100010.59;5092899;28;20056;-82
2022/12/06 04:23:20;;;;;;;7.18;2.95;;;;;;;4.11;100.00;100010.91;5092743;28;20053;-82
2022/12/06 04:25:46;;;;;;;9.23;3.30;;;;;;;4.00;100.00;100004.00;5074264;28;20043;-81
2022/12/06 04:39:16;;;;;;;4.60;3.00;;;;;;;4.05;100.00;100014.81;5075165;28;20051;-81
2022/12/06 04:44:31;;;;;;;8.10;3.80;;;;;;;3.93;100.00;100015.84;5092998;28;20438;-81
2022/12/06 04:47:03;;;;;;;6.22;3.72;;;;;;;4.02;100.00;100017.69;5092015;28;20039;-81
2022/12/06 04:49:28;;;;;;;7.88;4.15;;;;;;;3.89;100.00;100009.25;5092377;28;20036;-81
2022/12/06 04:52:03;;;;;;;5.35;3.38;;;;;;;3.85;100.00;100017.31;5094406;28;20027;-82
2022/12/06 04:54:29;;;;;;;11.18;3.00;;;;;;;3.95;100.00;100013.97;5074278;28;20470;-81
2022/12/06 04:57:09;;;;;;;9.68;3.70;;;;;;;4.02;100.00;100012.50;5075992;28;20084;-81
2022/12/06 04:59:40;;;;;;;6.38;3.60;;;;;;;4.01;100.00;100005.66;5093404;28;20064;-81
2022/12/06 05:02:15;;;;;;;6.45;2.85;;;;;;;3.92;100.00;100012.44;5090257;28;20055;-81
2022/12/06 05:04:43;;;;;;;11.18;2.90;;;;;;;3.73;100.00;100007.91;5074830;28;20097;-81
2022/12/06 05:07:12;;;;;;;5.07;2.60;;;;;;;3.79;100.00;100007.44;5089445;28;20032;-81
2022/12/06 05:09:38;;;;;;;5.53;3.00;;;;;;;3.81;100.00;100010.72;5091917;28;20031;-81
2022/12/06 05:12:04;;;;;;;6.20;2.75;;;;;;;3.88;100.00;100015.41;5074011;28;20016;-80
2022/12/06 05:14:35;;;;;;;8.82;2.53;;;;;;;3.89;100.00;100009.25;5091282;28;20036;-80
2022/12/06 05:17:00;;;;;;;4.07;2.72;;;;;;;3.88;100.00;100007.59;5091474;28;20036;-80
2022/12/06 05:19:32;;;;;;;5.80;2.70;;;;;;;3.85;100.00;100004.31;5071484;28;20024;-80
2022/12/06 05:21:57;;;;;;;8.00;2.55;;;;;;;4.02;100.00;100012.50;5092038;28;20454;-82
2022/12/06 05:24:23;;;;;;;5.70;2.83;;;;;;;3.77;100.00;100006.72;5073878;28;20035;-83
2022/12/06 05:26:49;;;;;;;5.03;2.28;;;;;;;3.88;100.00;100018.84;5074082;28;20032;-81
2022/12/06 05:29:15;;;;;;;4.10;2.70;;;;;;;3.92;100.00;100011.59;5088844;28;20469;-80
2022/12/06 05:31:48;;;;;;;7.50;2.33;;;;;;;4.00;100.00;100011.81;5076226;28;20111;-81
2022/12/06 05:34:14;;;;;;;4.93;2.50;;;;;;;3.85;100.00;100011.31;5092266;28;20753;-81
2022/12/06 05:36:40;;;;;;;6.45;2.25;;;;;;;3.92;100.00;99998.59;5073339;28;20444;-81
2022/12/06 05:39:05;;;;;;;7.63;2.08;;;;;;;3.88;100.00;100000.66;5091893;28;20047;-81
2022/12/06 05:41:41;;;;;;;5.55;2.90;;;;;;;3.82;100.00;100011.53;5073293;28;20036;-81
2022/12/06 05:44:09;;;;;;;5.85;2.92;;;;;;;3.95;100.00;100008.78;5073205;28;20040;-81
2022/12/06 05:46:42;;;;;;;6.93;2.63;;;;;;;3.88;100.00;100021.44;5091418;28;20083;-80
2022/12/06 05:49:09;;;;;;;5.65;2.00;;;;;;;4.05;100.00;100007.03;5073821;28;20028;-81
2022/12/06 05:51:36;;;;;;;5.30;2.17;;;;;;;4.00;100.00;100004.00;5092616;28;20024;-82
2022/12/06 05:54:04;;;;;;;4.75;2.10;;;;;;;3.99;100.00;100002.34;5057966;28;20486;-81
2022/12/06 05:56:31;;;;;;;4.20;2.08;;;;;;;3.94;100.00;100009.72;5074336;28;20077;-82
2022/12/06 05:58:58;;;;;;;6.82;2.38;;;;;;;3.89;100.00;100001.47;5073265;28;20044;-81
2022/12/06 06:01:26;;;;;;;6.13;1.88;;;;;;;3.91;100.00;100002.16;5072863;28;20048;-82
2022/12/06 06:03:52;;;;;;;3.88;2.10;;;;;;;3.99;100.00;99997.97;5092883;28;20083;-81
2022/12/06 06:06:22;;;;;;;6.78;2.53;;;;;;;3.88;100.00;99989.44;5090349;28;20051;-81
2022/12/06 06:08:49;;;;;;;5.10;2.10;;;;;;;3.92;100.00;99996.00;5091649;28;20497;-81
2022/12/06 06:11:14;;;;;;;2.90;1.98;;;;;;;3.93;100.00;99993.28;5091622;28;20028;-82
2022/12/06 06:13:40;;;;;;;3.88;2.00;;;;;;;3.86;100.00;99985.19;5073425;28;20038;-81
2022/12/06 06:16:06;;;;;;;4.50;2.22;;;;;;;3.91;100.00;99995.19;5091774;28;20036;-82
2022/12/06 06:18:32;;;;;;;6.45;2.30;;;;;;;3.91;100.00;99991.75;5091647;28;20024;-81
2022/12/06 06:20:59;;;;;;;4.55;2.60;;;;;;;3.75;100.00;100003.44;5073123;28;20542;-82
2022/12/06 06:23:26;;;;;;;4.93;2.70;;;;;;;3.83;100.00;99990.63;5107035;28;20023;-81
2022/12/06 06:25:53;;;;;;;5.50;2.90;;;;;;;3.85;100.00;99991.34;5090544;28;20494;-82
2022/12/06 06:28:18;;;;;;;5.90;3.22;;;;;;;3.82;100.00;99990.75;5092064;28;20114;-82
2022/12/06 06:30:45;;;;;;;4.95;3.20;;;;;;;3.86;100.00;99985.19;5092113;28;20115;-81
2022/12/06 06:33:13;;;;;;;6.50;3.13;;;;;;;3.94;100.00;99984.56;5091297;28;20035;-83
2022/12/06 06:35:39;;;;;;;8.23;3.88;;;;;;;3.96;100.00;99987.03;5088796;28;20035;-81
2022/12/06 06:38:13;;;;;;;5.32;3.30;;;;;;;3.77;100.00;99991.16;5089061;28;20035;-79
2022/12/06 06:40:40;;;;;;;6.82;3.60;;;;;;;3.98;100.00;99990.31;5088833;28;20469;-79
2022/12/06 06:43:19;;;;;;;5.63;3.38;;;;;;;3.97;100.00;99983.47;5089335;28;20047;-80
2022/12/06 06:45:56;;;;;;;9.40;3.72;;;;;;;4.17;100.00;99984.41;5087513;28;20051;-81
2022/12/06 06:48:22;;;;;;;6.35;3.42;;;;;;;4.11;100.00;99970.13;5089120;28;20024;-80
2022/12/06 06:50:49;;;;;;;6.78;3.58;;;;;;;4.36;100.00;99982.84;5089811;28;20065;-80
2022/12/06 06:53:15;;;;;;;4.47;3.42;;;;;;;4.38;100.00;99986.13;5054981;28;20039;-81
2022/12/06 06:55:42;;;;;;;6.47;3.65;;;;;;;4.52;100.00;99987.53;5089231;28;20373;-80
2022/12/06 06:58:08;;;;;;;6.65;3.85;;;;;;;4.64;100.00;99978.69;5089499;28;20036;-80
2022/12/06 07:00:36;;;;;;;11.73;5.50;;;;;;;4.70;100.00;99991.16;5054649;28;20138;-80
2022/12/06 07:03:02;;;;;;;7.72;3.92;;;;;;;4.88;100.00;99976.72;5090220;28;20033;-80
2022/12/06 07:05:30;;;;;;;8.85;4.68;;;;;;;5.05;100.00;99985.63;5089389;28;20040;-79
2022/12/06 07:07:56;;;;;;;5.15;3.72;;;;;;;4.99;100.00;99969.59;5072071;28;20055;-80
2022/12/06 07:10:26;;;;;;;7.47;4.07;;;;;;;4.97;100.00;99976.72;5072996;28;20023;-80
2022/12/06 07:12:53;;;;;;;4.40;3.25;;;;;;;4.96;100.00;99975.06;5093310;28;20466;-80
2022/12/06 07:15:23;;;;;;;7.45;5.10;;;;;;;4.93;100.00;99972.75;5094038;28;20039;-80
2022/12/06 07:17:50;;;;;;;6.00;3.50;;;;;;;4.82;100.00;99980.66;5074243;28;20485;-79
2022/12/06 07:20:22;;;;;;;8.40;3.95;;;;;;;5.12;100.00;99977.13;5093433;28;20028;-79
2022/12/06 07:22:47;;;;;;;5.93;3.13;;;;;;;5.16;100.00;99967.28;5093268;28;20036;-79
2022/12/06 07:25:13;;;;;;;10.70;3.88;;;;;;;5.15;100.00;99963.03;5058709;28;20097;-80
2022/12/06 07:27:48;;;;;;;6.95;3.35;;;;;;;5.37;100.00;99966.34;5092681;28;20036;-81
2022/12/06 07:30:15;;;;;;;4.30;3.35;;;;;;;5.10;100.00;99960.84;5095678;28;20473;-83
2022/12/06 07:32:41;;;;;;;9.93;4.07;;;;;;;5.29;100.00;99970.44;5076935;28;20070;-82
2022/12/06 07:35:07;;;;;;;8.00;3.42;;;;;;;5.41;100.00;99975.50;5076916;28;20032;-81
2022/12/06 07:37:35;;;;;;;5.22;3.30;;;;;;;5.28;100.00;99967.97;5093978;28;20028;-81
2022/12/06 07:40:02;;;;;;;8.75;4.07;;;;;;;5.08;100.00;99980.13;5076637;28;20374;-82
2022/12/06 07:45:14;;;;;;;6.40;3.90;;;;;;;5.57;100.00;99972.34;5093563;28;20107;-82
2022/12/06 07:47:42;;;;;;;5.72;4.22;;;;;;;5.51;100.00;99968.53;5077727;28;20079;-83
2022/12/06 07:50:11;;;;;;;10.00;3.70;;;;;;;5.37;100.00;99968.94;5095538;28;20028;-85
2022/12/06 07:52:41;;;;;;;6.13;3.45;;;;;;;5.68;100.00;99964.38;5095942;28;20043;-84
2022/12/06 07:55:09;;;;;;;7.30;3.70;;;;;;;5.58;100.00;99967.00;5076577;28;20027;-86
2022/12/06 07:57:42;;;;;;;7.47;3.42;;;;;;;5.53;100.00;99969.22;5091204;28;20473;-84
2022/12/06 08:00:10;;;;;;;9.43;3.42;;;;;;;5.72;100.00;99976.16;5075977;28;20140;-83
2022/12/06 08:02:36;;;;;;;7.00;3.70;;;;;;;5.59;100.00;99970.41;5077866;28;20099;-84
2022/12/06 08:05:03;;;;;;;6.53;3.15;;;;;;;5.72;100.00;99970.16;5093505;28;20394;-82
2022/12/06 08:07:28;;;;;;;7.00;4.50;;;;;;;5.70;100.00;99966.84;5075256;28;20028;-81
2022/12/06 08:10:04;;;;;;;9.95;3.33;;;;;;;5.70;100.00;99969.47;5077645;28;20040;-84
2022/12/06 08:12:33;;;;;;;8.05;2.80;;;;;;;5.72;100.00;99965.75;5096325;28;20485;-87
2022/12/06 08:15:13;;;;;;;4.00;2.85;;;;;;;5.61;100.00;99959.88;5070046;28;20118;-83
2022/12/06 08:17:39;;;;;;;6.10;2.83;;;;;;;5.59;100.00;99970.41;5093138;28;20024;-81
2022/12/06 08:20:14;;;;;;;5.85;2.60;;;;;;;5.66;100.00;99960.25;5091563;28;20033;-84
2022/12/06 08:22:49;;;;;;;;;;;;;;;5.86;100.00;99972.28;5092944;28;20107;-82
2022/12/06 08:25:16;;;;;;;8.20;2.70;;;;;;;5.72;100.00;99972.75;5056402;28;19998;-85
2022/12/06 08:27:48;;;;;;;8.65;2.55;;;;;;;5.68;100.00;99966.16;5093492;28;20064;-83
2022/12/06 08:30:14;;;;;;;6.38;2.42;;;;;;;5.76;100.00;99958.47;5062520;28;20050;-84
2022/12/06 08:32:40;;;;;;;7.40;2.30;;;;;;;5.76;100.00;99955.03;5078264;28;20017;-85
2022/12/06 08:35:06;;;;;;;6.78;2.53;;;;;;;5.88;100.00;99959.13;5061404;28;20070;-87
2022/12/06 08:37:35;;;;;;;5.25;2.47;;;;;;;5.94;100.00;99962.97;5062958;28;20020;-87
2022/12/06 08:40:08;;;;;;;5.72;2.30;;;;;;;5.83;100.00;99951.72;5098260;28;20063;-88
2022/12/06 08:42:34;;;;;;;5.32;2.05;;;;;;;5.96;100.00;99974.06;5094501;28;20032;-87
2022/12/06 08:44:59;;;;;;;4.60;2.28;;;;;;;6.00;100.00;99978.03;5093298;28;20504;-87
2022/12/06 08:47:35;;;;;;;7.07;2.28;;;;;;;5.94;100.00;99974.19;5078481;28;20103;-87
2022/12/06 08:50:01;;;;;;;6.47;2.97;;;;;;;6.02;100.00;99976.13;5094066;28;20036;-87
2022/12/06 08:52:26;;;;;;;6.15;3.47;;;;;;;6.14;100.00;99979.38;5095233;28;20139;-85
2022/12/06 08:54:55;;;;;;;4.93;3.17;;;;;;;6.17;100.00;99986.91;5078144;28;20032;-85
2022/12/06 08:57:20;;;;;;;5.05;2.60;;;;;;;6.32;100.00;99984.69;5093688;28;20032;-85
2022/12/06 08:59:46;;;;;;;5.03;2.60;;;;;;;6.33;100.00;99972.47;5093700;28;20370;-86
2022/12/06 09:02:12;;;;;;;5.65;2.05;;;;;;;6.35;100.00;99981.78;5075322;28;20426;-87
2022/12/06 09:04:37;;;;;;;4.43;2.47;;;;;;;6.29;100.00;99982.38;5075081;28;20057;-87
2022/12/06 09:07:04;;;;;;;6.22;1.80;;;;;;;6.22;100.00;99973.47;5074976;28;20060;-87
2022/12/06 09:09:29;;;;;;;5.97;2.15;;;;;;;6.29;100.00;99977.16;5072287;28;20052;-87
2022/12/06 09:12:05;;;;;;;2.95;1.90;;;;;;;6.01;100.00;99984.91;5068691;28;20966;-87
2022/12/06 09:14:31;;;;;;;5.50;1.60;;;;;;;6.13;100.00;99975.13;5053657;28;20401;-83
2022/12/06 09:16:56;;;;;;;2.20;1.85;;;;;;;6.32;100.00;99971.66;5046916;28;20035;-80
2022/12/06 09:19:23;;;;;;;3.28;1.73;;;;;;;6.20;100.00;99973.63;5045375;28;20020;-80
2022/12/06 09:21:48;;;;;;;3.13;1.70;;;;;;;6.05;100.00;99981.06;5062461;28;20446;-80
2022/12/06 09:24:16;;;;;;;3.60;1.75;;;;;;;6.06;100.00;99974.06;5045556;28;20469;-82
2022/12/06 09:26:43;;;;;;;2.60;1.70;;;;;;;6.09;100.00;99989.41;5066225;28;20055;-81
2022/12/06 09:29:10;;;;;;;1.77;1.40;;;;;;;6.08;100.00;99985.97;5064453;28;20077;-80
2022/12/06 09:31:38;;;;;;;5.38;1.77;;;;;;;6.16;100.00;99982.66;5058954;28;20024;-80
2022/12/06 09:34:05;;;;;;;3.03;1.58;;;;;;;6.24;100.00;99984.56;5044570;28;20035;-81
2022/12/06 09:36:53;;;;;;;4.28;1.77;;;;;;;6.24;100.00;99992.38;5063378;28;20028;-80
2022/12/06 09:39:31;;;;;;;2.53;1.55;;;;;;;6.38;100.00;99986.72;5047356;28;20032;-85
2022/12/06 09:42:00;;;;;;;2.25;1.85;;;;;;;6.39;100.00;99985.75;5081761;28;20031;-85
2022/12/06 09:44:54;;;;;;;2.47;2.00;;;;;;;6.42;100.00;99980.25;5075049;28;20040;-86
2022/12/06 09:47:46;;;;;;;3.88;1.88;;;;;;;6.40;100.00;99983.97;5035995;28;20031;-86
2022/12/06 09:50:41;;;;;;;4.50;2.95;;;;;;;6.31;100.00;99985.66;5071841;28;20075;-89
2022/12/06 09:53:48;;;;;;;3.58;2.42;;;;;;;6.49;100.00;99988.31;5071710;28;20058;-87
2022/12/06 09:56:36;;;;;;;3.08;2.30;;;;;;;6.38;100.00;99997.16;5080887;28;20046;-88
2022/12/06 09:59:06;;;;;;;4.43;1.67;;;;;;;6.39;100.00;99974.50;5101513;28;20028;-84
2022/12/06 10:01:37;;;;;;;8.55;2.65;;;;;;;6.37;100.00;99995.50;5092031;28;20031;-79
2022/12/06 10:04:09;;;;;;;4.13;2.58;;;;;;;6.61;100.00;99996.75;5088277;28;20054;-80
2022/12/06 10:06:45;;;;;;;3.67;2.20;;;;;;;6.66;100.00;99993.72;5087939;28;20020;-81
2022/12/06 10:09:25;;;;;;;5.03;2.10;;;;;;;7.00;100.00;99990.53;5088332;28;20090;-78
2022/12/06 10:12:11;;;;;;;3.80;2.05;;;;;;;7.00;100.00;99990.53;5072708;28;20039;-78
2022/12/06 10:14:37;;;;;;;3.30;1.70;;;;;;;6.66;100.00;99986.72;5089080;28;20107;-80
2022/12/06 10:17:23;;;;;;;4.80;2.28;;;;;;;6.85;100.00;99982.34;5070790;28;20225;-78
2022/12/06 10:20:23;;;;;;;4.38;1.95;;;;;;;6.75;100.00;99977.19;5084439;28;20064;-78
2022/12/06 10:22:57;;;;;;;6.97;2.10;;;;;;;6.64;100.00;99985.22;5060656;28;20043;-80
2022/12/06 10:25:24;;;;;;;3.05;1.90;;;;;;;6.39;100.00;99977.13;5070603;28;20036;-80
2022/12/06 10:28:10;;;;;;;6.90;2.67;;;;;;;6.58;100.00;99976.19;5071502;28;20040;-80
2022/12/06 10:30:43;;;;;;;3.75;1.75;;;;;;;6.61;100.00;99975.91;5071053;28;20653;-80
2022/12/06 10:33:51;;;;;;;7.65;2.50;;;;;;;6.83;100.00;99973.84;5083277;28;20028;-78
2022/12/06 10:36:32;;;;;;;5.85;2.38;;;;;;;6.83;100.00;99964.25;5089733;28;20055;-78
2022/12/06 10:39:07;;;;;;;5.85;2.35;;;;;;;6.66;100.00;99958.00;5089049;28;20032;-81
2022/12/06 10:41:39;;;;;;;4.88;2.30;;;;;;;6.76;100.00;99972.81;5088898;28;20024;-79
2022/12/06 10:44:33;;;;;;;4.82;2.30;;;;;;;6.88;100.00;99970.81;5089194;28;20073;-79
2022/12/06 10:47:11;;;;;;;14.90;2.70;;;;;;;6.86;100.00;99969.16;5095185;28;20031;-79
2022/12/06 10:49:38;;;;;;;6.55;2.33;;;;;;;6.73;100.00;99979.13;5097691;28;20479;-79
2022/12/06 10:52:15;;;;;;;10.57;2.45;;;;;;;6.89;100.00;99972.44;5096433;28;20028;-79
2022/12/06 10:54:47;;;;;;;5.57;2.17;;;;;;;7.14;100.00;99981.34;5078164;28;20496;-80
2022/12/06 10:57:20;;;;;;;10.80;2.30;;;;;;;7.06;100.00;99963.81;5096382;28;20035;-80
2022/12/06 10:59:57;;;;;;;9.87;2.70;;;;;;;6.64;100.00;99953.91;5077626;28;20106;-79
2022/12/06 11:02:36;;;;;;;10.60;2.20;;;;;;;7.02;100.00;99974.69;5094312;28;20060;-79
2022/12/06 11:05:14;;;;;;;11.65;2.53;;;;;;;7.10;100.00;99962.53;5077217;28;20039;-80
2022/12/06 11:07:45;;;;;;;12.57;2.42;;;;;;;7.17;100.00;99964.53;5077276;28;20024;-79
2022/12/06 11:10:20;;;;;;;11.75;2.70;;;;;;;7.23;100.00;99964.78;5097012;28;20066;-79
2022/12/06 11:12:50;;;;;;;6.32;2.33;;;;;;;7.19;100.00;99962.63;5096052;28;20037;-79
2022/12/06 11:15:24;;;;;;;9.52;2.30;;;;;;;7.29;100.00;99961.59;5095922;28;20095;-79
2022/12/06 11:18:09;;;;;;;9.80;3.20;;;;;;;7.35;100.00;99967.97;5094964;28;20367;-79
2022/12/06 11:20:43;;;;;;;13.80;3.22;;;;;;;7.51;100.00;99962.09;5096399;28;20035;-79
2022/12/06 11:23:46;;;;;;;11.68;3.17;;;;;;;7.32;100.00;99972.69;5078341;28;20032;-79
2022/12/06 11:26:29;;;;;;;11.38;2.83;;;;;;;7.57;100.00;99965.88;5094440;28;20107;-78
2022/12/06 11:29:04;;;;;;;8.23;2.85;;;;;;;7.49;100.00;99958.81;5097374;28;20028;-78
2022/12/06 11:31:44;;;;;;;8.90;2.42;;;;;;;7.64;100.00;99958.22;5096768;28;20032;-78
2022/12/06 11:34:18;;;;;;;13.63;2.60;;;;;;;7.41;100.00;99948.28;5095902;28;20028;-80
2022/12/06 11:36:44;;;;;;;;;;;;;;;7.46;100.00;99946.03;5078646;28;20028;-79
2022/12/06 11:39:14;;;;;;;9.63;3.63;;;;;;;7.54;100.00;99947.88;5077281;28;19922;-78
2022/12/06 11:41:42;;;;;;;10.40;3.30;;;;;;;7.52;100.00;99945.44;5060664;28;20028;-79
2022/12/06 11:44:17;;;;;;;9.13;3.17;;;;;;;7.57;100.00;99940.56;5077694;28;20039;-78
2022/12/06 11:46:44;;;;;;;6.13;3.20;;;;;;;7.66;100.00;99951.06;5095527;28;20089;-79
2022/12/06 11:49:17;;;;;;;8.75;3.35;;;;;;;7.74;100.00;99943.28;5077995;28;20450;-79
2022/12/06 11:51:43;;;;;;;9.70;3.22;;;;;;;7.64;100.00;99939.94;5094521;28;20032;-79
2022/12/06 11:54:25;;;;;;;8.50;2.85;;;;;;;7.66;100.00;99936.22;5096129;28;20027;-79
2022/12/06 11:56:51;;;;;;;14.75;3.83;;;;;;;7.56;100.00;99931.09;5092786;28;20039;-80
2022/12/06 11:59:30;;;;;;;9.02;2.35;;;;;;;7.97;100.00;99941.00;5092993;28;20114;-79
2022/12/06 12:02:01;;;;;;;14.88;3.17;;;;;;;7.80;100.00;99940.06;5090415;28;20103;-79
2022/12/06 12:04:41;;;;;;;7.72;2.70;;;;;;;7.83;100.00;99933.72;5093694;28;20435;-84
2022/12/06 12:07:18;;;;;;;12.82;3.53;;;;;;;8.01;100.00;99941.47;5090935;28;20374;-84
2022/12/06 12:10:00;;;;;;;15.48;3.35;;;;;;;7.96;100.00;99943.75;5093459;28;20382;-83